Strona główna
METAR-TAF:

METAR-TAF

Lotnisko :

Araçatuba, São Paulo, Brazylia

Szerokość geograficzna: 21-08-39S, Długość geograficzna: 050-25-35W, wysokość: 415 m

Aktualna obserwacja pogody

Raport powstał 6 godziny i 2 minut temu, godzina 09:00 UTC
Wiatr 8 kt od południe
Temperatura 15°C
Wilgotność 94%
Ciśnienie 1018 hPa
Widzialność 10 km lub więcej
Brak chmur poniżej 1500 m i brak chmur cumulonimbus

METAR: SBAU 120900Z 18008KT CAVOK 15/14 Q1018

czas: 12:02 (15:02 UTC)


TAF: brakujący

Obserwacja i prognoza pogody dla ponad 4000 lotnisk (raport METAR i TAF).

Dostępne stacje oznaczono żółtymi i czerwonymi punktami na mapie.

Najedź kursorem aby zobaczyć nazwę stacji.

Kliknij aby zobaczyć obserwacje i prognozy pogody.

Aby zmienić mapę: kliknij na zielony przycisk z czarnym krzyżykiem, aby powiększyć; na zielony przycisk z myślnikiem, aby pomniejszyć; na zielone strzałki, aby przejść do map sąsiednich.


METAR-TAF: